Time;durP1;ratioP1;P1;durP2;ratioP2;P2;SDS_P1;SDS_P2;PMS_P1;PMS_P2;Temp;Humidity;BMP_temperature;BMP_pressure;BME280_temperature;BME280_humidity;BME280_pressure;Samples;Min_cycle;Max_cycle;Signal;HPM_P1;HPM_P2
2023/01/23 00:02:06;;;;;;;19.67;12.67;;;;;;;1.11;100.00;102662.72;5013215;28;20291;-84
2023/01/23 00:04:32;;;;;;;22.57;13.17;;;;;;;1.13;100.00;102666.22;5012550;28;20233;-84
2023/01/23 00:06:59;;;;;;;23.17;12.63;;;;;;;1.13;100.00;102672.38;5013300;28;20668;-83
2023/01/23 00:09:26;;;;;;;26.23;13.37;;;;;;;1.12;100.00;102667.09;5013841;28;20222;-83
2023/01/23 00:11:53;;;;;;;23.40;14.07;;;;;;;1.14;100.00;102668.00;5012452;28;20215;-82
2023/01/23 00:14:20;;;;;;;26.70;13.60;;;;;;;1.13;100.00;102672.38;5011254;28;20237;-82
2023/01/23 00:16:46;;;;;;;27.40;13.47;;;;;;;1.14;100.00;102671.50;5010931;28;20250;-82
2023/01/23 00:19:13;;;;;;;22.10;12.67;;;;;;;1.15;100.00;102670.63;5011237;28;20246;-82
2023/01/23 00:21:39;;;;;;;25.97;13.43;;;;;;;1.16;100.00;102669.75;5011202;28;20207;-83
2023/01/23 00:24:07;;;;;;;27.00;13.93;;;;;;;1.16;100.00;102677.63;5011112;28;20227;-82
2023/01/23 00:26:35;;;;;;;27.83;14.07;;;;;;;1.15;100.00;102675.00;5011473;28;20298;-83
2023/01/23 00:29:03;;;;;;;21.50;12.30;;;;;;;1.14;100.00;102674.13;5011535;28;20307;-83
2023/01/23 00:31:30;;;;;;;22.80;12.60;;;;;;;1.12;100.00;102680.22;5011517;28;20215;-83
2023/01/23 00:33:59;;;;;;;25.40;12.27;;;;;;;1.13;100.00;102677.63;5011542;28;20290;-82
2023/01/23 00:36:29;;;;;;;26.57;14.13;;;;;;;1.13;100.00;102675.00;5011381;28;20214;-84
2023/01/23 00:39:17;;;;;;;30.57;13.70;;;;;;;1.12;100.00;102667.09;5011304;28;20203;-83
2023/01/23 00:41:48;;;;;;;27.27;13.10;;;;;;;1.09;100.00;102670.56;5011009;28;20210;-82
2023/01/23 00:44:16;;;;;;;25.13;13.40;;;;;;;1.09;100.00;102670.56;5016756;28;20716;-83
2023/01/23 00:46:44;;;;;;;25.33;12.90;;;;;;;1.11;100.00;102665.34;5016364;28;20202;-84
2023/01/23 00:49:10;;;;;;;27.00;13.50;;;;;;;1.09;100.00;102674.94;5016595;28;20588;-84
2023/01/23 00:51:37;;;;;;;23.80;13.33;;;;;;;1.08;100.00;102668.81;5016636;28;20739;-83
2023/01/23 00:54:04;;;;;;;21.73;12.37;;;;;;;1.09;100.00;102664.44;5016612;28;20203;-83
2023/01/23 00:56:31;;;;;;;25.03;13.53;;;;;;;1.10;100.00;102676.69;5016207;28;20203;-84
2023/01/23 00:58:59;;;;;;;25.57;13.40;;;;;;;1.10;100.00;102680.19;5016790;28;20206;-84
2023/01/23 01:01:27;;;;;;;22.73;11.73;;;;;;;1.08;100.00;102671.44;5016308;28;20234;-83
2023/01/23 01:03:54;;;;;;;25.37;12.93;;;;;;;1.10;100.00;102674.06;5016705;28;20585;-84
2023/01/23 01:06:21;;;;;;;28.20;13.10;;;;;;;1.10;100.00;102672.34;5016738;28;20219;-83
2023/01/23 01:08:52;;;;;;;22.63;12.17;;;;;;;1.10;100.00;102672.34;5016941;28;20226;-83
2023/01/23 01:11:26;;;;;;;25.37;13.73;;;;;;;1.11;100.00;102689.84;5016870;28;20224;-83
2023/01/23 01:13:53;;;;;;;25.47;12.97;;;;;;;1.11;100.00;102681.97;5014727;28;20186;-83
2023/01/23 01:16:37;;;;;;;23.57;13.03;;;;;;;1.10;100.00;102682.81;5014434;28;20234;-83
2023/01/23 01:19:03;;;;;;;25.93;13.10;;;;;;;1.08;100.00;102695.06;5014988;28;20223;-84
2023/01/23 01:21:30;;;;;;;22.13;13.37;;;;;;;1.08;100.00;102695.06;5014707;28;20206;-84
2023/01/23 01:23:57;;;;;;;24.73;12.90;;;;;;;1.09;100.00;102694.19;5014781;28;20601;-83
2023/01/23 01:26:25;;;;;;;27.37;13.40;;;;;;;1.08;100.00;102695.06;5014815;28;20214;-83
2023/01/23 01:28:51;;;;;;;25.90;13.63;;;;;;;1.09;100.00;102702.06;5014856;28;20292;-83
2023/01/23 01:31:18;;;;;;;26.50;12.70;;;;;;;1.10;100.00;102698.56;5014976;28;20659;-83
2023/01/23 01:33:48;;;;;;;24.17;14.00;;;;;;;1.10;100.00;102702.94;5014607;28;20225;-84
2023/01/23 01:36:17;;;;;;;24.73;13.20;;;;;;;1.08;100.00;102708.19;5014866;28;20249;-83
2023/01/23 01:38:44;;;;;;;24.27;13.23;;;;;;;1.10;100.00;102709.06;5014649;28;20211;-83
2023/01/23 01:41:23;;;;;;;27.37;13.47;;;;;;;1.10;100.00;102710.81;5014804;28;20257;-82
2023/01/23 01:43:52;;;;;;;28.67;13.47;;;;;;;1.10;100.00;102706.44;5014156;28;20195;-83
2023/01/23 01:46:21;;;;;;;29.00;13.43;;;;;;;1.11;100.00;102721.31;5014319;28;20353;-83
2023/01/23 01:49:00;;;;;;;25.30;12.93;;;;;;;1.10;100.00;102718.69;5014267;28;20207;-83
2023/01/23 01:51:31;;;;;;;29.20;14.33;;;;;;;1.07;100.00;102724.81;5013988;28;20191;-83
2023/01/23 01:54:03;;;;;;;26.97;12.93;;;;;;;1.10;100.00;102726.56;5013812;28;20207;-83
2023/01/23 01:56:32;;;;;;;27.37;13.63;;;;;;;1.08;100.00;102720.41;5014073;28;20274;-83
2023/01/23 01:59:01;;;;;;;28.97;13.80;;;;;;;1.09;100.00;102728.31;5014033;28;20232;-83
2023/01/23 02:01:28;;;;;;;30.43;13.57;;;;;;;1.09;100.00;102736.19;5013655;28;20209;-84
2023/01/23 02:03:59;;;;;;;28.43;12.97;;;;;;;1.09;100.00;102719.56;5013708;28;20211;-83
2023/01/23 02:06:26;;;;;;;30.63;13.97;;;;;;;1.09;100.00;102737.91;5014042;28;20245;-83
2023/01/23 02:09:00;;;;;;;32.57;13.80;;;;;;;1.05;100.00;102737.03;5014056;28;20265;-83
2023/01/23 02:11:27;;;;;;;31.80;15.00;;;;;;;1.08;100.00;102739.66;5013735;28;20236;-83
2023/01/23 02:13:55;;;;;;;28.03;13.97;;;;;;;1.07;100.00;102740.56;5014121;28;20298;-83
2023/01/23 02:16:26;;;;;;;28.20;14.00;;;;;;;1.08;100.00;102742.28;5013459;28;20235;-83
2023/01/23 02:18:59;;;;;;;29.40;14.17;;;;;;;1.06;100.00;102737.91;5013832;28;20193;-83
2023/01/23 02:21:27;;;;;;;30.30;15.13;;;;;;;1.05;100.00;102734.41;5013432;28;20203;-82
2023/01/23 02:24:09;;;;;;;29.43;14.67;;;;;;;1.08;100.00;102742.28;5013536;28;20207;-83
2023/01/23 02:26:51;;;;;;;29.17;13.80;;;;;;;1.10;100.00;102755.41;5013663;28;20264;-83
2023/01/23 02:29:19;;;;;;;31.67;14.63;;;;;;;1.08;100.00;102744.03;5013777;28;20575;-83
2023/01/23 02:32:04;;;;;;;27.93;13.77;;;;;;;1.10;100.00;102760.66;5013613;28;20282;-83
2023/01/23 02:34:30;;;;;;;23.90;13.13;;;;;;;1.10;100.00;102761.56;5013226;28;20234;-84
2023/01/23 02:36:57;;;;;;;28.53;13.63;;;;;;;1.09;100.00;102753.66;5013305;28;20714;-83
2023/01/23 02:39:26;;;;;;;32.07;14.47;;;;;;;1.07;100.00;102750.19;5012951;28;20207;-84
2023/01/23 02:41:56;;;;;;;28.07;13.83;;;;;;;1.08;100.00;102757.16;5013467;28;20203;-83
2023/01/23 02:44:26;;;;;;;34.63;14.70;;;;;;;1.09;100.00;102751.03;5012754;28;20281;-83
2023/01/23 02:46:53;;;;;;;30.17;14.17;;;;;;;1.10;100.00;102756.31;5013237;28;20203;-83
2023/01/23 02:49:20;;;;;;;30.80;13.70;;;;;;;1.08;100.00;102752.78;5012935;28;20844;-83
2023/01/23 02:51:49;;;;;;;32.90;13.80;;;;;;;1.08;100.00;102763.28;5012692;28;20199;-83
2023/01/23 02:54:17;;;;;;;33.57;14.87;;;;;;;1.11;100.00;102762.44;5012887;28;20825;-83
2023/01/23 02:56:46;;;;;;;30.30;14.47;;;;;;;1.10;100.00;102760.66;5012805;28;20253;-83
2023/01/23 03:02:18;;;;;;;36.30;15.83;;;;;;;1.10;100.00;102764.19;5014606;28;20262;-82
2023/01/23 03:04:55;;;;;;;35.30;15.50;;;;;;;1.09;100.00;102765.03;5013871;28;20226;-84
2023/01/23 03:07:25;;;;;;;42.23;14.80;;;;;;;1.12;100.00;102772.94;5014939;28;20269;-83
2023/01/23 03:10:00;;;;;;;38.37;14.77;;;;;;;1.12;100.00;102769.44;5014653;28;20576;-84
2023/01/23 03:12:29;;;;;;;45.97;15.43;;;;;;;1.12;100.00;102770.31;5014766;28;20281;-83
2023/01/23 03:14:58;;;;;;;39.77;15.07;;;;;;;1.10;100.00;102764.19;5014115;28;20285;-83
2023/01/23 03:17:33;;;;;;;40.93;15.50;;;;;;;1.11;100.00;102770.31;5014620;28;20206;-83
2023/01/23 03:20:03;;;;;;;44.07;15.97;;;;;;;1.11;100.00;102768.56;5014763;28;20203;-83
2023/01/23 03:22:32;;;;;;;36.93;14.37;;;;;;;1.11;100.00;102773.81;5014760;28;20219;-84
2023/01/23 03:25:03;;;;;;;49.37;17.17;;;;;;;1.11;100.00;102780.81;5014439;28;20234;-83
2023/01/23 03:27:36;;;;;;;42.60;15.20;;;;;;;1.11;100.00;102784.31;5013880;28;20233;-83
2023/01/23 03:30:15;;;;;;;40.17;15.97;;;;;;;1.11;100.00;102779.06;5013574;28;20211;-84
2023/01/23 03:33:02;;;;;;;53.47;17.60;;;;;;;1.11;100.00;102778.19;5014329;28;20198;-83
2023/01/23 03:35:38;;;;;;;52.20;16.20;;;;;;;1.11;100.00;102780.81;5011284;28;20226;-84
2023/01/23 03:38:20;;;;;;;45.40;16.57;;;;;;;1.10;100.00;102781.66;5010328;28;20805;-83
2023/01/23 03:43:43;;;;;;;46.50;15.60;;;;;;;1.09;100.00;102779.91;5013258;28;20743;-84
2023/01/23 03:46:14;;;;;;;55.63;16.23;;;;;;;1.08;100.00;102779.03;5011938;28;20704;-84
2023/01/23 03:48:42;;;;;;;41.00;15.20;;;;;;;1.07;100.00;102777.28;5011052;28;20264;-84
2023/01/23 03:51:15;;;;;;;46.03;16.53;;;;;;;1.07;100.00;102779.91;5011978;28;20289;-83
2023/01/23 03:53:48;;;;;;;51.63;16.03;;;;;;;1.08;100.00;102784.28;5011981;28;20798;-83
2023/01/23 03:56:26;;;;;;;45.57;15.13;;;;;;;1.06;100.00;102778.16;5011791;28;20222;-83
2023/01/23 03:59:03;;;;;;;46.37;16.40;;;;;;;1.08;100.00;102779.03;5013255;28;20194;-84
2023/01/23 04:01:54;;;;;;;40.20;15.17;;;;;;;1.07;100.00;102774.66;5014295;28;20693;-84
2023/01/23 04:04:30;;;;;;;39.87;14.53;;;;;;;1.07;100.00;102779.03;5014230;28;20229;-85
2023/01/23 04:06:57;;;;;;;41.90;15.53;;;;;;;1.05;100.00;102784.28;5013910;28;20571;-84
2023/01/23 04:09:42;;;;;;;41.93;15.50;;;;;;;1.07;100.00;102787.78;5014251;28;20690;-84
2023/01/23 04:12:12;;;;;;;38.07;14.67;;;;;;;1.04;100.00;102780.75;5013859;28;20215;-83
2023/01/23 04:17:42;;;;;;;40.57;15.40;;;;;;;1.05;100.00;102786.91;5014231;28;20225;-83
2023/01/23 04:20:32;;;;;;;37.57;15.03;;;;;;;1.05;100.00;102794.75;5015755;28;20198;-84
2023/01/23 04:23:25;;;;;;;37.70;14.27;;;;;;;1.01;100.00;102779.84;5015068;28;20293;-83
2023/01/23 04:26:02;;;;;;;43.13;14.77;;;;;;;1.02;100.00;102785.13;5015098;28;20230;-83
2023/01/23 04:31:32;;;;;;;40.63;15.50;;;;;;;0.99;100.00;102792.06;5015162;28;20211;-84
2023/01/23 04:34:08;;;;;;;40.73;14.63;;;;;;;0.96;100.00;102792.03;5017879;28;20229;-84
2023/01/23 04:36:41;;;;;;;41.13;14.17;;;;;;;0.96;100.00;102790.28;5016980;28;20187;-85
2023/01/23 04:39:19;;;;;;;37.23;15.07;;;;;;;0.95;100.00;102798.13;5017244;28;20211;-84
2023/01/23 04:41:56;;;;;;;39.50;15.83;;;;;;;0.96;100.00;102797.28;5017085;28;20213;-84
2023/01/23 04:44:38;;;;;;;34.63;14.47;;;;;;;0.97;100.00;102801.66;5016525;28;20230;-83
2023/01/23 04:50:12;;;;;;;38.13;15.17;;;;;;;0.95;100.00;102801.66;4976447;28;20291;-84
2023/01/23 04:55:32;;;;;;;38.63;15.17;;;;;;;0.98;100.00;102803.44;5013902;28;20241;-83
2023/01/23 04:58:24;;;;;;;39.90;14.77;;;;;;;0.96;100.00;102800.78;5015321;28;20331;-82
2023/01/23 05:04:02;;;;;;;36.23;14.47;;;;;;;0.99;100.00;102800.81;5014338;28;20211;-83
2023/01/23 05:06:33;;;;;;;35.03;14.87;;;;;;;0.98;100.00;102792.94;5014823;28;20210;-83
2023/01/23 05:09:31;;;;;;;39.77;15.93;;;;;;;0.96;100.00;102798.16;5014556;28;20206;-84
2023/01/23 05:12:04;;;;;;;31.70;14.57;;;;;;;0.98;100.00;102803.44;5012719;28;20214;-83
2023/01/23 05:14:57;;;;;;;36.03;15.00;;;;;;;1.00;100.00;102799.97;5015153;28;20215;-82
2023/01/23 05:20:50;;;;;;;33.17;14.47;;;;;;;0.97;100.00;102799.03;5014900;28;20187;-83
2023/01/23 05:23:32;;;;;;;29.00;13.13;;;;;;;0.97;100.00;102797.28;5014888;28;20257;-84
2023/01/23 05:26:05;;;;;;;30.60;14.13;;;;;;;0.94;100.00;102799.00;5014104;28;20241;-83
2023/01/23 05:28:56;;;;;;;33.00;14.10;;;;;;;0.93;100.00;102799.88;5014452;28;20217;-83
2023/01/23 05:34:26;;;;;;;27.30;12.83;;;;;;;0.92;100.00;102804.22;5013038;28;20211;-83
2023/01/23 05:37:00;;;;;;;29.87;13.90;;;;;;;0.91;100.00;102807.72;5015133;28;20261;-83
2023/01/23 05:39:53;;;;;;;28.33;13.37;;;;;;;0.93;100.00;102805.09;5014493;28;20293;-83
2023/01/23 05:42:32;;;;;;;27.60;12.77;;;;;;;0.94;100.00;102807.75;5013781;28;20199;-84
2023/01/23 05:45:14;;;;;;;29.13;14.50;;;;;;;0.94;100.00;102807.75;5014305;28;20691;-83
2023/01/23 05:47:43;;;;;;;29.63;13.10;;;;;;;0.94;100.00;102809.50;5014082;28;20206;-84
2023/01/23 05:50:23;;;;;;;26.00;13.43;;;;;;;0.94;100.00;102809.50;5014721;28;20897;-85
2023/01/23 05:52:52;;;;;;;24.07;12.77;;;;;;;0.95;100.00;102819.13;5014105;28;20195;-83
2023/01/23 05:55:33;;;;;;;27.93;13.20;;;;;;;0.92;100.00;102819.97;5014039;28;20227;-84
2023/01/23 05:58:05;;;;;;;25.60;14.13;;;;;;;0.94;100.00;102823.50;5014152;28;20276;-83
2023/01/23 06:00:40;;;;;;;28.70;14.27;;;;;;;0.95;100.00;102824.38;5016154;28;20192;-83
2023/01/23 06:03:16;;;;;;;26.93;12.90;;;;;;;0.95;100.00;102824.38;5016537;28;20237;-83
2023/01/23 06:05:45;;;;;;;25.97;14.13;;;;;;;0.94;100.00;102825.25;5016230;28;20317;-84
2023/01/23 06:14:26;;;;;;;25.17;12.87;;;;;;;0.94;100.00;102835.72;5015103;28;20215;-83
2023/01/23 06:17:18;;;;;;;30.00;13.60;;;;;;;0.90;100.00;102837.44;5015781;28;20567;-84
2023/01/23 06:20:08;;;;;;;28.37;13.83;;;;;;;0.92;100.00;102846.22;5017149;28;20611;-84
2023/01/23 06:22:47;;;;;;;26.13;12.40;;;;;;;0.93;100.00;102849.72;5015441;28;20187;-85
2023/01/23 06:25:27;;;;;;;32.60;15.60;;;;;;;0.92;100.00;102850.56;5015326;28;20833;-83
2023/01/23 06:27:58;;;;;;;26.80;13.30;;;;;;;0.93;100.00;102854.97;5015016;28;20227;-84
2023/01/23 06:30:29;;;;;;;29.90;15.47;;;;;;;0.93;100.00;102858.47;5012829;28;20214;-84
2023/01/23 06:32:56;;;;;;;29.60;13.77;;;;;;;0.95;100.00;102862.00;5014568;28;20554;-84
2023/01/23 06:36:06;;;;;;;30.50;14.70;;;;;;;0.95;100.00;102858.47;5014072;28;20795;-84
2023/01/23 06:38:36;;;;;;;32.13;13.53;;;;;;;0.95;100.00;102863.72;5013949;28;20212;-84
2023/01/23 06:41:09;;;;;;;31.67;14.53;;;;;;;0.97;100.00;102872.50;5013943;28;20199;-84
2023/01/23 06:43:54;;;;;;;32.97;14.07;;;;;;;0.95;100.00;102859.38;5014053;28;20215;-83
2023/01/23 06:46:24;;;;;;;30.53;14.57;;;;;;;0.97;100.00;102865.50;5014659;28;20234;-84
2023/01/23 06:48:57;;;;;;;34.10;15.63;;;;;;;0.98;100.00;102871.66;5014930;28;20705;-84
2023/01/23 06:51:30;;;;;;;32.57;14.27;;;;;;;0.97;100.00;102873.38;5015669;28;20270;-85
2023/01/23 06:53:59;;;;;;;37.50;16.13;;;;;;;0.96;100.00;102879.50;5015718;28;20202;-85
2023/01/23 06:56:29;;;;;;;40.37;15.93;;;;;;;0.98;100.00;102879.50;5014992;28;20234;-83
2023/01/23 06:59:02;;;;;;;40.33;16.10;;;;;;;0.97;100.00;102883.88;5014283;28;20203;-85
2023/01/23 07:01:30;;;;;;;34.63;15.73;;;;;;;0.97;100.00;102888.25;5014731;28;20571;-84
2023/01/23 07:04:05;;;;;;;35.20;15.40;;;;;;;0.97;100.00;102902.25;5013015;28;20202;-83
2023/01/23 07:06:32;;;;;;;41.97;16.33;;;;;;;0.98;100.00;102911.00;5011714;28;20218;-83
2023/01/23 07:09:02;;;;;;;32.40;14.37;;;;;;;0.97;100.00;102901.38;5012587;28;20294;-84
2023/01/23 07:11:40;;;;;;;40.13;16.53;;;;;;;0.97;100.00;102906.63;5013031;28;20285;-83
2023/01/23 07:14:12;;;;;;;40.30;16.67;;;;;;;0.97;100.00;102906.63;5012948;28;20226;-84
2023/01/23 07:16:39;;;;;;;36.50;15.70;;;;;;;0.99;100.00;102910.13;5013223;28;20670;-84
2023/01/23 07:19:06;;;;;;;39.00;15.40;;;;;;;0.97;100.00;102912.75;5012992;28;20298;-83
2023/01/23 07:21:50;;;;;;;38.27;15.47;;;;;;;0.98;100.00;102921.50;5012892;28;20215;-83
2023/01/23 07:24:19;;;;;;;41.57;15.90;;;;;;;0.96;100.00;102920.59;5012766;28;20557;-84
2023/01/23 07:26:45;;;;;;;38.47;16.13;;;;;;;0.97;100.00;102924.97;5012855;28;20236;-83
2023/01/23 07:29:18;;;;;;;35.77;16.37;;;;;;;0.98;100.00;102929.38;5012800;28;20235;-84
2023/01/23 07:31:45;;;;;;;35.47;15.57;;;;;;;1.00;100.00;102927.66;5012789;28;20193;-83
2023/01/23 07:34:14;;;;;;;38.90;16.50;;;;;;;0.99;100.00;102934.63;5012655;28;20664;-84
2023/01/23 07:36:47;;;;;;;43.77;18.03;;;;;;;0.99;100.00;102941.63;5012886;28;20230;-84
2023/01/23 07:39:16;;;;;;;39.83;16.50;;;;;;;0.99;100.00;102944.25;5012737;28;20230;-84
2023/01/23 07:41:46;;;;;;;43.83;17.27;;;;;;;1.01;100.00;102947.78;5012690;28;20811;-83
2023/01/23 07:44:17;;;;;;;39.23;17.10;;;;;;;1.00;100.00;102946.91;5012697;28;20288;-83
2023/01/23 07:47:00;;;;;;;46.33;16.40;;;;;;;1.00;100.00;102948.63;5014024;28;20223;-83
2023/01/23 07:49:27;;;;;;;47.00;17.87;;;;;;;1.02;100.00;102955.66;5013949;28;20206;-83
2023/01/23 07:51:58;;;;;;;41.47;16.83;;;;;;;1.02;100.00;102953.06;5014377;28;20419;-83
2023/01/23 07:54:28;;;;;;;44.17;17.20;;;;;;;1.04;100.00;102947.81;5014320;28;20590;-84
2023/01/23 07:56:57;;;;;;;45.73;18.10;;;;;;;1.03;100.00;102965.31;5014683;28;20725;-84
2023/01/23 07:59:28;;;;;;;43.70;17.27;;;;;;;1.01;100.00;102959.16;5014129;28;20264;-83
2023/01/23 08:01:55;;;;;;;37.27;15.53;;;;;;;1.03;100.00;102964.44;5011960;28;20214;-85
2023/01/23 08:04:21;;;;;;;40.07;16.50;;;;;;;1.00;100.00;102959.13;5013321;28;20213;-85
2023/01/23 08:06:48;;;;;;;37.73;15.80;;;;;;;1.02;100.00;102960.91;5012335;28;20227;-83
2023/01/23 08:09:14;;;;;;;32.97;16.33;;;;;;;0.99;100.00;102963.50;5012202;28;20211;-84
2023/01/23 08:11:45;;;;;;;35.90;13.83;;;;;;;0.98;100.00;102972.22;5012145;28;20595;-84
2023/01/23 08:14:12;;;;;;;34.20;15.97;;;;;;;0.98;100.00;102971.34;5013719;28;20325;-83
2023/01/23 08:16:40;;;;;;;36.07;16.43;;;;;;;0.98;100.00;102971.34;5012837;28;20294;-85
2023/01/23 08:19:08;;;;;;;34.67;14.50;;;;;;;0.98;100.00;102971.34;5013709;28;20213;-85
2023/01/23 08:21:39;;;;;;;37.70;16.07;;;;;;;0.95;100.00;102964.31;5013456;28;20196;-85
2023/01/23 08:24:16;;;;;;;41.23;17.77;;;;;;;0.97;100.00;102965.22;5013477;28;20218;-85
2023/01/23 08:26:51;;;;;;;39.20;16.43;;;;;;;0.98;100.00;102971.34;5013995;28;20217;-85
2023/01/23 08:29:17;;;;;;;41.33;16.43;;;;;;;0.97;100.00;102959.97;5013397;28;20261;-85
2023/01/23 08:31:45;;;;;;;41.77;17.50;;;;;;;0.98;100.00;102961.72;5013144;28;20203;-85
2023/01/23 08:34:12;;;;;;;42.63;17.83;;;;;;;1.00;100.00;102970.50;5011465;28;20199;-84
2023/01/23 08:36:38;;;;;;;43.37;17.67;;;;;;;0.98;100.00;102972.22;5011991;28;20209;-83
2023/01/23 08:39:05;;;;;;;38.73;17.23;;;;;;;1.00;100.00;102962.63;5011430;28;20297;-84
2023/01/23 08:41:32;;;;;;;38.77;17.57;;;;;;;1.01;100.00;102959.16;5011935;28;20580;-83
2023/01/23 08:44:00;;;;;;;42.47;19.00;;;;;;;1.02;100.00;102957.41;5012081;28;20252;-84
2023/01/23 08:46:27;;;;;;;40.50;17.57;;;;;;;1.04;100.00;102966.19;5011743;28;20266;-84
2023/01/23 08:48:55;;;;;;;43.00;18.90;;;;;;;1.00;100.00;102960.00;5011187;28;20667;-83
2023/01/23 08:51:22;;;;;;;39.43;17.67;;;;;;;1.05;100.00;102973.19;5011864;28;20211;-84
2023/01/23 08:53:51;;;;;;;37.33;18.17;;;;;;;1.04;100.00;102967.06;5011198;28;20214;-83
2023/01/23 08:56:19;;;;;;;35.47;15.97;;;;;;;1.06;100.00;102964.47;5011251;28;20729;-84
2023/01/23 08:58:46;;;;;;;31.60;16.43;;;;;;;1.06;100.00;102974.09;5010639;28;20668;-84
2023/01/23 09:01:13;;;;;;;34.93;16.27;;;;;;;1.06;100.00;102977.59;5010342;28;20214;-84
2023/01/23 09:03:40;;;;;;;35.77;16.23;;;;;;;1.08;100.00;102988.06;5013825;28;20203;-84
2023/01/23 09:06:09;;;;;;;28.17;16.73;;;;;;;1.06;100.00;102984.59;5014449;28;20239;-83
2023/01/23 09:08:36;;;;;;;31.67;15.33;;;;;;;1.09;100.00;102989.84;5014528;28;20206;-83
2023/01/23 09:11:03;;;;;;;34.73;16.07;;;;;;;1.09;100.00;102987.22;5014129;28;20203;-83
2023/01/23 09:13:30;;;;;;;27.77;13.87;;;;;;;1.08;100.00;102991.59;5014958;28;20215;-84
2023/01/23 09:15:57;;;;;;;32.73;15.87;;;;;;;1.10;100.00;102994.22;5014552;28;20219;-84
2023/01/23 09:18:24;;;;;;;38.83;16.63;;;;;;;1.11;100.00;102993.38;5014538;28;20225;-85
2023/01/23 09:20:50;;;;;;;35.23;15.97;;;;;;;1.10;100.00;102997.75;5015313;28;20549;-84
2023/01/23 09:23:19;;;;;;;29.90;14.33;;;;;;;1.12;100.00;102996.03;5014400;28;20207;-84
2023/01/23 09:25:45;;;;;;;30.40;15.23;;;;;;;1.14;100.00;103007.41;5014015;28;20594;-83
2023/01/23 09:28:12;;;;;;;32.53;15.90;;;;;;;1.13;100.00;102997.78;5013825;28;20231;-83
2023/01/23 09:30:39;;;;;;;31.93;15.77;;;;;;;1.13;100.00;103008.28;5014113;28;20594;-84
2023/01/23 09:33:05;;;;;;;29.80;15.23;;;;;;;1.14;100.00;103010.03;5016423;28;20214;-84
2023/01/23 09:35:32;;;;;;;31.10;16.27;;;;;;;1.15;100.00;103021.44;5016582;28;20231;-85
2023/01/23 09:38:03;;;;;;;30.60;14.87;;;;;;;1.15;100.00;103018.81;5016114;28;20203;-84
2023/01/23 09:40:35;;;;;;;30.80;14.57;;;;;;;1.15;100.00;103022.31;5016440;28;20290;-84
2023/01/23 09:43:10;;;;;;;35.47;15.53;;;;;;;1.15;100.00;103024.94;5023230;28;20203;-84
2023/01/23 09:45:39;;;;;;;31.47;15.10;;;;;;;1.15;100.00;103030.19;5036304;28;20222;-85
2023/01/23 09:48:18;;;;;;;32.67;16.33;;;;;;;1.16;100.00;103029.31;5033838;28;20597;-84
2023/01/23 09:50:53;;;;;;;32.87;14.77;;;;;;;1.17;100.00;103036.34;5034293;28;20191;-84
2023/01/23 09:53:23;;;;;;;35.43;17.40;;;;;;;1.17;100.00;103043.31;5034218;28;20190;-84
2023/01/23 09:55:58;;;;;;;31.53;15.40;;;;;;;1.18;100.00;103043.34;5034326;28;20226;-84
2023/01/23 09:58:28;;;;;;;31.63;15.53;;;;;;;1.18;100.00;103050.34;5034238;28;20562;-84
2023/01/23 10:00:55;;;;;;;35.27;16.33;;;;;;;1.20;100.00;103057.38;5033795;28;20226;-83
2023/01/23 10:03:26;;;;;;;31.07;15.87;;;;;;;1.18;100.00;103048.59;5036448;28;20187;-84
2023/01/23 10:06:06;;;;;;;31.43;16.33;;;;;;;1.20;100.00;103056.50;5036636;28;20238;-84
2023/01/23 10:08:40;;;;;;;33.70;15.93;;;;;;;1.23;100.00;103057.44;5036578;28;20213;-83
2023/01/23 10:11:11;;;;;;;34.03;15.03;;;;;;;1.23;100.00;103053.94;5035146;28;20207;-84
2023/01/23 10:14:01;;;;;;;32.27;15.73;;;;;;;1.23;100.00;103048.69;5054920;28;20243;-84
2023/01/23 10:16:49;;;;;;;35.33;15.10;;;;;;;1.23;100.00;103051.31;5026184;28;20250;-84
2023/01/23 10:19:28;;;;;;;30.47;14.17;;;;;;;1.22;100.00;103046.91;5019062;28;20218;-85
2023/01/23 10:22:01;;;;;;;27.57;13.67;;;;;;;1.22;100.00;103041.66;5035444;28;20204;-84
2023/01/23 10:24:43;;;;;;;28.57;13.70;;;;;;;1.23;100.00;103043.41;5038069;28;20234;-86
2023/01/23 10:27:18;;;;;;;28.57;14.30;;;;;;;1.22;100.00;103050.41;5032083;28;20706;-86
2023/01/23 10:29:49;;;;;;;35.83;15.10;;;;;;;1.22;100.00;103039.91;5024596;28;20260;-85
2023/01/23 10:32:23;;;;;;;31.27;14.97;;;;;;;1.22;100.00;103045.16;5038877;28;20261;-84
2023/01/23 10:34:55;;;;;;;33.13;15.33;;;;;;;1.23;100.00;103046.03;5036457;28;20237;-84
2023/01/23 10:37:37;;;;;;;38.00;15.93;;;;;;;1.24;100.00;103042.56;5021320;28;20280;-85
2023/01/23 10:40:11;;;;;;;37.47;16.53;;;;;;;1.20;100.00;103033.75;5017881;28;20197;-86
2023/01/23 10:42:38;;;;;;;33.40;15.03;;;;;;;1.21;100.00;103035.53;5046964;28;20205;-84
2023/01/23 10:45:07;;;;;;;31.97;14.03;;;;;;;1.22;100.00;103031.16;5026874;28;20257;-84
2023/01/23 10:47:36;;;;;;;35.77;14.87;;;;;;;1.23;100.00;103019.78;5030344;28;20261;-85
2023/01/23 10:50:03;;;;;;;35.77;16.33;;;;;;;1.21;100.00;103025.03;5031826;28;20209;-85
2023/01/23 10:52:33;;;;;;;31.87;14.30;;;;;;;1.24;100.00;103025.06;5027583;28;20202;-85
2023/01/23 10:55:00;;;;;;;32.00;14.97;;;;;;;1.27;100.00;103032.06;5030538;28;20228;-85
2023/01/23 10:57:30;;;;;;;31.17;14.73;;;;;;;1.27;100.00;103032.06;5029155;28;20260;-85
2023/01/23 11:00:03;;;;;;;34.53;14.53;;;;;;;1.27;100.00;103032.06;5026074;28;20203;-85
2023/01/23 11:02:32;;;;;;;34.87;15.07;;;;;;;1.28;100.00;103039.09;5033350;28;20209;-86
2023/01/23 11:04:59;;;;;;;34.10;14.80;;;;;;;1.28;100.00;103037.34;5025402;28;20240;-86
2023/01/23 11:07:27;;;;;;;30.43;13.50;;;;;;;1.30;100.00;103035.63;5033746;28;20240;-86
2023/01/23 11:09:56;;;;;;;31.53;15.63;;;;;;;1.32;100.00;103036.53;5030198;28;20588;-85
2023/01/23 11:12:25;;;;;;;35.30;15.47;;;;;;;1.33;100.00;103032.16;5033118;28;20202;-85
2023/01/23 11:15:10;;;;;;;29.40;14.10;;;;;;;1.32;100.00;103036.53;5022390;28;20219;-84
2023/01/23 11:17:38;;;;;;;37.20;14.60;;;;;;;1.33;100.00;103026.91;5026223;28;20579;-85
2023/01/23 11:20:11;;;;;;;38.13;17.00;;;;;;;1.34;100.00;103033.94;5030037;28;20264;-84
2023/01/23 11:22:40;;;;;;;33.13;15.07;;;;;;;1.34;100.00;103021.69;5035509;28;20209;-85
2023/01/23 11:25:28;;;;;;;35.03;14.43;;;;;;;1.35;100.00;103017.31;5032369;28;20233;-85
2023/01/23 11:27:59;;;;;;;29.30;13.57;;;;;;;1.38;100.00;103014.72;5027708;28;20758;-85
2023/01/23 11:30:35;;;;;;;30.77;14.67;;;;;;;1.36;100.00;103014.72;5033286;28;20308;-84
2023/01/23 11:33:12;;;;;;;33.70;15.40;;;;;;;1.37;100.00;103007.72;5036582;28;20227;-85
2023/01/23 11:35:53;;;;;;;35.03;16.23;;;;;;;1.38;100.00;103013.00;5037751;28;20220;-84
2023/01/23 11:38:25;;;;;;;33.60;15.53;;;;;;;1.40;100.00;103010.38;5031214;28;20208;-84
2023/01/23 11:40:52;;;;;;;34.90;14.50;;;;;;;1.41;100.00;103016.53;5029062;28;20191;-84
2023/01/23 11:43:19;;;;;;;38.17;16.00;;;;;;;1.41;100.00;103016.53;5035311;28;20218;-85
2023/01/23 11:45:58;;;;;;;39.23;16.50;;;;;;;1.41;100.00;103008.66;5036585;28;20226;-84
2023/01/23 11:48:50;;;;;;;37.23;16.17;;;;;;;1.40;100.00;103010.38;5026079;28;20222;-84
2023/01/23 11:51:21;;;;;;;42.70;15.60;;;;;;;1.41;100.00;103006.91;5034783;28;20210;-84
2023/01/23 11:54:00;;;;;;;38.93;16.97;;;;;;;1.42;100.00;103005.16;5030702;28;20203;-85
2023/01/23 11:56:40;;;;;;;37.43;15.67;;;;;;;1.45;100.00;103010.41;5033615;28;20237;-84
2023/01/23 11:59:34;;;;;;;36.63;15.57;;;;;;;1.43;100.00;103007.81;5034213;28;20214;-85
2023/01/23 12:02:22;;;;;;;36.37;16.53;;;;;;;1.44;100.00;103003.41;5032985;28;20688;-84
2023/01/23 12:05:05;;;;;;;33.97;16.27;;;;;;;1.44;100.00;103001.66;5039462;28;20233;-84
2023/01/23 12:07:38;;;;;;;40.20;16.73;;;;;;;1.44;100.00;103009.53;5042026;28;20226;-85